createdAt,value
2022-11-05T00:04:07.150Z,99674.69
2022-11-05T00:09:29.422Z,99687.56
2022-11-05T00:14:49.932Z,99688.22
2022-11-05T00:19:51.563Z,99689.97
2022-11-05T00:25:12.006Z,99691.94
2022-11-05T00:30:18.200Z,99699.16
2022-11-05T00:35:22.433Z,99705.47
2022-11-05T00:40:24.105Z,99713.41
2022-11-05T00:45:25.853Z,99706.31
2022-11-05T00:50:28.441Z,99715.00
2022-11-05T00:55:38.852Z,99732.34
2022-11-05T01:00:44.226Z,99727.88
2022-11-05T01:05:53.621Z,99743.47
2022-11-05T01:10:57.462Z,99742.50
2022-11-05T01:16:08.235Z,99751.19
2022-11-05T01:21:13.647Z,99754.91
2022-11-05T01:26:15.384Z,99762.75
2022-11-05T01:31:17.195Z,99774.78
2022-11-05T01:36:19.265Z,99779.16
2022-11-05T01:41:20.905Z,99778.78
2022-11-05T01:46:37.105Z,99784.53
2022-11-05T01:51:39.639Z,99785.22
2022-11-05T01:56:52.691Z,99791.22
2022-11-05T02:01:54.827Z,99790.97
2022-11-05T02:06:57.047Z,99791.47
2022-11-05T02:11:58.688Z,99800.72
2022-11-05T02:17:28.316Z,99798.59
2022-11-05T02:22:50.045Z,99807.13
2022-11-05T02:28:21.400Z,99810.06
2022-11-05T02:33:28.959Z,99812.44
2022-11-05T02:38:50.680Z,99816.69
2022-11-05T02:44:10.792Z,99816.47
2022-11-05T02:49:24.856Z,99824.72
2022-11-05T02:54:37.049Z,99824.63
2022-11-05T02:59:38.667Z,99821.69
2022-11-05T03:04:40.612Z,99817.03
2022-11-05T03:10:00.887Z,99826.38
2022-11-05T03:15:24.158Z,99835.47
2022-11-05T03:20:40.620Z,99839.19
2022-11-05T03:25:53.575Z,99854.63
2022-11-05T03:30:58.000Z,99867.25
2022-11-05T03:36:05.695Z,99864.88
2022-11-05T03:41:12.092Z,99871.41
2022-11-05T03:46:20.588Z,99872.50
2022-11-05T03:52:04.273Z,99877.88
2022-11-05T03:57:21.456Z,99869.31
2022-11-05T04:02:25.961Z,99874.41
2022-11-05T04:07:46.286Z,99886.50
2022-11-05T04:13:06.431Z,99895.78
2022-11-05T04:18:08.029Z,99897.13
2022-11-05T04:23:28.779Z,99910.25
2022-11-05T04:28:50.400Z,99906.44
2022-11-05T04:33:52.018Z,99921.91
2022-11-05T04:38:53.635Z,99921.47
2022-11-05T04:43:55.287Z,99931.81
2022-11-05T04:48:56.885Z,99938.06
2022-11-05T04:53:58.526Z,99937.03
2022-11-05T04:59:00.130Z,99942.19
2022-11-05T05:04:01.815Z,99943.53
2022-11-05T05:09:03.507Z,99948.53
2022-11-05T05:14:05.124Z,99942.59
2022-11-05T05:19:06.740Z,99952.13
2022-11-05T05:24:16.702Z,99956.41
2022-11-05T05:29:18.856Z,99947.63
2022-11-05T05:34:20.497Z,99952.63
2022-11-05T05:39:22.167Z,99969.31
2022-11-05T05:44:24.492Z,99968.47
2022-11-05T05:49:26.125Z,99984.50
2022-11-05T05:54:31.889Z,99992.13
2022-11-05T05:59:35.155Z,99998.38
2022-11-05T06:04:36.773Z,99999.84
2022-11-05T06:09:38.368Z,99996.16
2022-11-05T06:14:40.009Z,99999.16
2022-11-05T06:19:41.625Z,100003.53
2022-11-05T06:24:43.226Z,100001.22
2022-11-05T06:29:44.826Z,100009.13
2022-11-05T06:34:46.427Z,100011.34
2022-11-05T06:39:48.325Z,100021.63
2022-11-05T06:44:50.119Z,100032.41
2022-11-05T06:49:51.737Z,100036.78
2022-11-05T06:54:53.503Z,100045.69
2022-11-05T07:00:00.580Z,100058.56
2022-11-05T07:05:04.057Z,100066.94
2022-11-05T07:10:07.823Z,100065.47
2022-11-05T07:15:11.395Z,100075.63
2022-11-05T07:20:13.113Z,100080.19
2022-11-05T07:25:14.817Z,100087.19
2022-11-05T07:30:16.600Z,100100.47
2022-11-05T07:35:18.351Z,100096.56
2022-11-05T07:40:21.174Z,100104.13
2022-11-05T07:45:23.669Z,100120.13
2022-11-05T07:50:28.414Z,100125.34
2022-11-05T07:55:30.961Z,100129.81
2022-11-05T08:00:33.654Z,100133.34
2022-11-05T08:05:38.377Z,100136.03
2022-11-05T08:10:40.091Z,100135.00
2022-11-05T08:15:43.008Z,100136.66
2022-11-05T08:20:46.596Z,100126.94
2022-11-05T08:25:48.236Z,100120.47
2022-11-05T08:30:51.892Z,100132.00
2022-11-05T08:35:53.502Z,100133.84
2022-11-05T08:40:57.703Z,100133.00
2022-11-05T08:46:02.737Z,100133.84
2022-11-05T08:51:04.562Z,100146.41
2022-11-05T08:56:06.435Z,100148.44
2022-11-05T09:01:08.200Z,100148.91
2022-11-05T09:06:09.955Z,100152.00
2022-11-05T09:11:11.680Z,100163.25
2022-11-05T09:16:22.750Z,100179.03
2022-11-05T09:21:24.531Z,100172.16
2022-11-05T09:26:26.246Z,100175.28
2022-11-05T09:31:27.979Z,100175.75
2022-11-05T09:36:29.770Z,100182.25
2022-11-05T09:41:43.532Z,100185.38
2022-11-05T09:47:01.283Z,100190.63
2022-11-05T09:52:03.154Z,100192.47
2022-11-05T09:57:11.044Z,100193.28
2022-11-05T10:02:23.733Z,100196.59
2022-11-05T10:07:28.739Z,100200.22
2022-11-05T10:12:39.908Z,100204.69
2022-11-05T10:17:48.744Z,100205.41
2022-11-05T10:23:00.793Z,100203.13
2022-11-05T10:28:04.904Z,100200.91
2022-11-05T10:33:07.539Z,100193.06
2022-11-05T10:38:14.669Z,100196.63
2022-11-05T10:43:46.482Z,100191.28
2022-11-05T10:49:11.012Z,100189.63
2022-11-05T10:54:18.398Z,100197.31
2022-11-05T10:59:28.727Z,100189.50
2022-11-05T11:04:35.036Z,100190.03
2022-11-05T11:09:39.224Z,100194.25
2022-11-05T11:14:40.895Z,100199.78
2022-11-05T11:19:42.611Z,100198.47
2022-11-05T11:24:45.523Z,100198.78
2022-11-05T11:29:54.683Z,100194.03
2022-11-05T11:34:58.228Z,100193.81
2022-11-05T11:40:13.131Z,100192.53
2022-11-05T11:45:19.394Z,100184.41
2022-11-05T11:50:41.156Z,100191.56
2022-11-05T11:55:55.375Z,100180.06
2022-11-05T12:01:13.173Z,100184.66
2022-11-05T12:06:31.954Z,100176.81
2022-11-05T12:11:41.831Z,100176.59
2022-11-05T12:17:00.422Z,100174.41
2022-11-05T12:22:51.314Z,100176.72
2022-11-05T12:28:10.862Z,100180.09
2022-11-05T12:33:18.808Z,100186.31
2022-11-05T12:38:32.612Z,100183.47
2022-11-05T12:44:15.923Z,100178.09
2022-11-05T12:49:31.035Z,100181.38
2022-11-05T12:54:54.614Z,100175.16
2022-11-05T13:00:06.325Z,100191.09
2022-11-05T13:05:16.945Z,100189.13
2022-11-05T13:10:35.318Z,100192.31
2022-11-05T13:15:48.136Z,100198.19
2022-11-05T13:20:52.773Z,100200.75
2022-11-05T13:26:00.561Z,100207.13
2022-11-05T13:31:05.969Z,100199.50
2022-11-05T13:37:09.669Z,100200.56
2022-11-05T13:42:20.553Z,100194.34
2022-11-05T13:47:40.859Z,100207.19
2022-11-05T13:53:07.067Z,100197.53
2022-11-05T13:58:45.995Z,100191.28
2022-11-05T14:03:50.521Z,100195.31
2022-11-05T14:08:56.661Z,100191.03
2022-11-05T14:14:02.888Z,100191.88
2022-11-05T14:19:19.887Z,100192.13
2022-11-05T14:24:21.440Z,100205.97
2022-11-05T14:29:24.472Z,100203.38
2022-11-05T14:34:46.207Z,100203.81
2022-11-05T14:39:48.243Z,100203.91
2022-11-05T14:45:20.703Z,100197.59
2022-11-05T14:50:34.481Z,100175.06
2022-11-05T14:55:39.172Z,100170.81
2022-11-05T15:00:42.558Z,100173.94
2022-11-05T15:05:46.916Z,100188.38
2022-11-05T15:10:50.478Z,100191.44
2022-11-05T15:15:52.492Z,100187.72
2022-11-05T15:20:57.538Z,100187.94
2022-11-05T15:26:18.927Z,100183.72
2022-11-05T15:31:29.692Z,100175.81
2022-11-05T15:36:32.025Z,100176.81
2022-11-05T15:41:34.701Z,100175.72
2022-11-05T15:46:36.403Z,100174.66
2022-11-05T15:51:38.034Z,100174.72
2022-11-05T15:56:48.021Z,100163.47
2022-11-05T16:02:14.661Z,100163.69
2022-11-05T16:07:17.234Z,100169.88
2022-11-05T16:12:18.773Z,100178.78
2022-11-05T16:17:23.124Z,100194.44
2022-11-05T16:22:25.980Z,100197.50
2022-11-05T16:27:27.720Z,100203.91
2022-11-05T16:32:31.668Z,100224.97
2022-11-05T16:37:41.717Z,100220.91
2022-11-05T16:42:45.510Z,100227.19
2022-11-05T16:47:47.861Z,100232.75
2022-11-05T16:52:49.859Z,100219.84
2022-11-05T16:57:54.273Z,100208.81
2022-11-05T17:02:56.074Z,100208.31
2022-11-05T17:07:58.156Z,100209.91
2022-11-05T17:12:59.919Z,100211.25
2022-11-05T17:18:02.367Z,100225.22
2022-11-05T17:23:05.416Z,100227.47
2022-11-05T17:28:07.940Z,100246.56
2022-11-05T17:33:13.033Z,100235.06
2022-11-05T17:38:15.162Z,100226.03
2022-11-05T17:43:17.085Z,100236.34
2022-11-05T17:48:20.858Z,100236.75
2022-11-05T17:53:22.470Z,100233.38
2022-11-05T17:58:24.451Z,100243.66
2022-11-05T18:03:26.167Z,100249.94
2022-11-05T18:08:27.806Z,100248.78
2022-11-05T18:13:29.457Z,100256.22
2022-11-05T18:18:31.262Z,100257.81
2022-11-05T18:23:32.901Z,100272.50
2022-11-05T18:28:34.823Z,100270.41
2022-11-05T18:33:36.451Z,100271.47
2022-11-05T18:38:39.204Z,100267.19
2022-11-05T18:43:41.154Z,100256.81
2022-11-05T18:48:43.224Z,100263.91
2022-11-05T18:53:44.880Z,100256.75
2022-11-05T18:58:46.835Z,100251.97
2022-11-05T19:03:50.457Z,100240.84
2022-11-05T19:08:52.662Z,100240.34
2022-11-05T19:13:54.460Z,100249.34
2022-11-05T19:19:02.495Z,100250.75
2022-11-05T19:24:04.687Z,100245.03
2022-11-05T19:29:06.418Z,100254.13
2022-11-05T19:34:08.307Z,100258.06
2022-11-05T19:39:15.135Z,100254.19
2022-11-05T19:44:16.795Z,100261.16
2022-11-05T19:49:18.729Z,100259.22
2022-11-05T19:54:20.562Z,100267.31
2022-11-05T19:59:22.160Z,100259.22
2022-11-05T20:04:24.207Z,100260.25
2022-11-05T20:09:26.134Z,100261.66
2022-11-05T20:14:27.858Z,100256.94
2022-11-05T20:19:29.823Z,100246.41
2022-11-05T20:24:31.653Z,100242.59
2022-11-05T20:29:35.692Z,100240.72
2022-11-05T20:34:38.749Z,100255.88
2022-11-05T20:39:44.186Z,100256.47
2022-11-05T20:44:45.794Z,100256.84
2022-11-05T20:49:47.447Z,100242.22
2022-11-05T20:54:49.054Z,100254.72
2022-11-05T20:59:50.979Z,100252.72
2022-11-05T21:04:53.507Z,100251.84
2022-11-05T21:09:55.950Z,100259.03
2022-11-05T21:14:57.729Z,100265.34
2022-11-05T21:19:59.346Z,100264.22
2022-11-05T21:25:00.982Z,100273.75
2022-11-05T21:30:03.440Z,100278.13
2022-11-05T21:35:05.403Z,100282.31
2022-11-05T21:40:07.770Z,100288.31
2022-11-05T21:45:10.059Z,100289.09
2022-11-05T21:50:11.687Z,100280.38
2022-11-05T21:55:42.406Z,100278.81
2022-11-05T22:00:44.073Z,100288.75
2022-11-05T22:05:45.758Z,100285.38
2022-11-05T22:10:47.362Z,100285.75
2022-11-05T22:15:56.424Z,100282.94
2022-11-05T22:20:58.159Z,100283.94
2022-11-05T22:26:01.616Z,100275.66
2022-11-05T22:31:03.389Z,100278.25
2022-11-05T22:36:05.245Z,100276.34
2022-11-05T22:41:17.593Z,100277.41
2022-11-05T22:46:22.474Z,100284.34
2022-11-05T22:51:27.959Z,100277.72
2022-11-05T22:56:31.958Z,100276.31
2022-11-05T23:01:33.970Z,100273.84
2022-11-05T23:06:54.490Z,100270.16
2022-11-05T23:11:57.439Z,100273.16
2022-11-05T23:17:17.679Z,100254.13
2022-11-05T23:22:44.159Z,100246.34
2022-11-05T23:27:48.419Z,100228.91
2022-11-05T23:32:50.563Z,100232.66
2022-11-05T23:38:11.218Z,100231.13
2022-11-05T23:43:32.095Z,100223.03
2022-11-05T23:48:36.436Z,100228.03
2022-11-05T23:53:40.780Z,100206.50
2022-11-05T23:58:42.950Z,100191.88
